sensor_id;sensor_type;location;lat;lon;timestamp;P1;durP1;ratioP1;P2;durP2;ratioP2
56720;SDS011;53183;47.412;18.884;2022-12-08T00:01:19;17.67;;;9.05;;
56720;SDS011;53183;47.412;18.884;2022-12-08T00:03:48;19.55;;;8.98;;
56720;SDS011;53183;47.412;18.884;2022-12-08T00:09:18;20.90;;;9.23;;
56720;SDS011;53183;47.412;18.884;2022-12-08T00:14:34;15.13;;;8.30;;
56720;SDS011;53183;47.412;18.884;2022-12-08T00:17:07;14.98;;;8.38;;
56720;SDS011;53183;47.412;18.884;2022-12-08T00:19:36;16.75;;;8.90;;
56720;SDS011;53183;47.412;18.884;2022-12-08T00:22:05;19.40;;;9.18;;
56720;SDS011;53183;47.412;18.884;2022-12-08T00:24:34;16.77;;;8.85;;
56720;SDS011;53183;47.412;18.884;2022-12-08T00:27:05;18.15;;;9.20;;
56720;SDS011;53183;47.412;18.884;2022-12-08T00:29:33;21.58;;;9.50;;
56720;SDS011;53183;47.412;18.884;2022-12-08T00:32:00;20.40;;;9.88;;
56720;SDS011;53183;47.412;18.884;2022-12-08T00:34:29;17.37;;;8.85;;
56720;SDS011;53183;47.412;18.884;2022-12-08T00:36:56;15.82;;;8.57;;
56720;SDS011;53183;47.412;18.884;2022-12-08T00:39:23;15.80;;;8.38;;
56720;SDS011;53183;47.412;18.884;2022-12-08T00:41:51;17.55;;;8.82;;
56720;SDS011;53183;47.412;18.884;2022-12-08T00:44:37;16.27;;;8.32;;
56720;SDS011;53183;47.412;18.884;2022-12-08T00:47:05;14.95;;;7.55;;
56720;SDS011;53183;47.412;18.884;2022-12-08T00:49:32;17.95;;;8.15;;
56720;SDS011;53183;47.412;18.884;2022-12-08T00:51:59;14.13;;;7.82;;
56720;SDS011;53183;47.412;18.884;2022-12-08T00:54:27;18.25;;;8.48;;
56720;SDS011;53183;47.412;18.884;2022-12-08T00:56:54;15.07;;;7.72;;
56720;SDS011;53183;47.412;18.884;2022-12-08T00:59:21;17.85;;;8.65;;
56720;SDS011;53183;47.412;18.884;2022-12-08T01:01:48;17.85;;;8.68;;
56720;SDS011;53183;47.412;18.884;2022-12-08T01:04:16;16.27;;;8.65;;
56720;SDS011;53183;47.412;18.884;2022-12-08T01:06:44;14.60;;;8.00;;
56720;SDS011;53183;47.412;18.884;2022-12-08T01:09:12;14.05;;;7.78;;
56720;SDS011;53183;47.412;18.884;2022-12-08T01:11:40;16.50;;;8.18;;
56720;SDS011;53183;47.412;18.884;2022-12-08T01:14:07;16.00;;;8.30;;
56720;SDS011;53183;47.412;18.884;2022-12-08T01:16:35;19.17;;;8.98;;
56720;SDS011;53183;47.412;18.884;2022-12-08T01:19:03;18.12;;;7.93;;
56720;SDS011;53183;47.412;18.884;2022-12-08T01:21:30;16.83;;;9.25;;
56720;SDS011;53183;47.412;18.884;2022-12-08T01:24:00;13.45;;;7.00;;
56720;SDS011;53183;47.412;18.884;2022-12-08T01:26:28;16.35;;;8.27;;
56720;SDS011;53183;47.412;18.884;2022-12-08T01:28:55;16.90;;;9.38;;
56720;SDS011;53183;47.412;18.884;2022-12-08T01:31:22;17.08;;;8.27;;
56720;SDS011;53183;47.412;18.884;2022-12-08T01:33:50;16.02;;;8.63;;
56720;SDS011;53183;47.412;18.884;2022-12-08T01:36:21;19.70;;;8.50;;
56720;SDS011;53183;47.412;18.884;2022-12-08T01:38:55;18.65;;;8.57;;
56720;SDS011;53183;47.412;18.884;2022-12-08T01:41:25;19.15;;;8.77;;
56720;SDS011;53183;47.412;18.884;2022-12-08T01:46:30;18.05;;;9.45;;
56720;SDS011;53183;47.412;18.884;2022-12-08T01:49:10;17.40;;;8.75;;
56720;SDS011;53183;47.412;18.884;2022-12-08T01:51:42;21.45;;;8.07;;
56720;SDS011;53183;47.412;18.884;2022-12-08T01:54:15;20.10;;;9.80;;
56720;SDS011;53183;47.412;18.884;2022-12-08T01:56:51;21.30;;;10.00;;
56720;SDS011;53183;47.412;18.884;2022-12-08T01:59:38;20.52;;;10.10;;
56720;SDS011;53183;47.412;18.884;2022-12-08T02:02:10;23.23;;;9.93;;
56720;SDS011;53183;47.412;18.884;2022-12-08T02:04:38;15.70;;;8.05;;
56720;SDS011;53183;47.412;18.884;2022-12-08T02:07:06;20.05;;;8.95;;
56720;SDS011;53183;47.412;18.884;2022-12-08T02:09:35;17.17;;;8.57;;
56720;SDS011;53183;47.412;18.884;2022-12-08T02:12:04;17.52;;;9.05;;
56720;SDS011;53183;47.412;18.884;2022-12-08T02:14:31;19.45;;;9.57;;
56720;SDS011;53183;47.412;18.884;2022-12-08T02:17:22;18.90;;;8.18;;
56720;SDS011;53183;47.412;18.884;2022-12-08T02:20:13;18.75;;;9.38;;
56720;SDS011;53183;47.412;18.884;2022-12-08T02:23:07;14.90;;;7.85;;
56720;SDS011;53183;47.412;18.884;2022-12-08T02:39:10;18.70;;;9.40;;
56720;SDS011;53183;47.412;18.884;2022-12-08T02:44:44;13.80;;;7.78;;
56720;SDS011;53183;47.412;18.884;2022-12-08T02:47:15;19.50;;;9.00;;
56720;SDS011;53183;47.412;18.884;2022-12-08T02:49:44;20.75;;;9.13;;
56720;SDS011;53183;47.412;18.884;2022-12-08T02:54:40;17.70;;;8.50;;
56720;SDS011;53183;47.412;18.884;2022-12-08T03:08:21;22.00;;;9.20;;
56720;SDS011;53183;47.412;18.884;2022-12-08T03:11:01;15.93;;;8.48;;
56720;SDS011;53183;47.412;18.884;2022-12-08T03:13:41;17.37;;;9.90;;
56720;SDS011;53183;47.412;18.884;2022-12-08T03:16:13;16.15;;;8.45;;
56720;SDS011;53183;47.412;18.884;2022-12-08T03:18:46;19.98;;;9.48;;
56720;SDS011;53183;47.412;18.884;2022-12-08T03:21:16;19.37;;;8.88;;
56720;SDS011;53183;47.412;18.884;2022-12-08T03:23:46;16.27;;;8.63;;
56720;SDS011;53183;47.412;18.884;2022-12-08T03:26:19;18.67;;;8.00;;
56720;SDS011;53183;47.412;18.884;2022-12-08T03:28:54;19.67;;;10.27;;
56720;SDS011;53183;47.412;18.884;2022-12-08T03:31:23;20.67;;;9.77;;
56720;SDS011;53183;47.412;18.884;2022-12-08T03:33:53;25.55;;;11.75;;
56720;SDS011;53183;47.412;18.884;2022-12-08T03:36:24;27.08;;;12.13;;
56720;SDS011;53183;47.412;18.884;2022-12-08T03:38:52;26.05;;;12.50;;
56720;SDS011;53183;47.412;18.884;2022-12-08T03:41:23;32.72;;;13.05;;
56720;SDS011;53183;47.412;18.884;2022-12-08T03:43:55;27.30;;;13.00;;
56720;SDS011;53183;47.412;18.884;2022-12-08T03:46:26;29.37;;;13.15;;
56720;SDS011;53183;47.412;18.884;2022-12-08T03:48:53;31.10;;;14.25;;
56720;SDS011;53183;47.412;18.884;2022-12-08T03:51:21;31.62;;;14.23;;
56720;SDS011;53183;47.412;18.884;2022-12-08T03:53:49;27.40;;;12.77;;
56720;SDS011;53183;47.412;18.884;2022-12-08T03:58:52;25.15;;;13.45;;
56720;SDS011;53183;47.412;18.884;2022-12-08T04:01:20;23.95;;;12.37;;
56720;SDS011;53183;47.412;18.884;2022-12-08T04:03:48;20.35;;;11.02;;
56720;SDS011;53183;47.412;18.884;2022-12-08T04:06:16;29.17;;;11.75;;
56720;SDS011;53183;47.412;18.884;2022-12-08T04:08:43;32.80;;;11.98;;
56720;SDS011;53183;47.412;18.884;2022-12-08T04:11:11;24.80;;;12.60;;
56720;SDS011;53183;47.412;18.884;2022-12-08T04:13:38;25.77;;;12.00;;
56720;SDS011;53183;47.412;18.884;2022-12-08T04:16:07;26.48;;;12.35;;
56720;SDS011;53183;47.412;18.884;2022-12-08T04:18:34;27.62;;;12.52;;
56720;SDS011;53183;47.412;18.884;2022-12-08T04:21:01;23.02;;;11.65;;
56720;SDS011;53183;47.412;18.884;2022-12-08T04:23:29;31.55;;;11.73;;
56720;SDS011;53183;47.412;18.884;2022-12-08T04:25:56;22.87;;;11.85;;
56720;SDS011;53183;47.412;18.884;2022-12-08T04:28:23;25.20;;;13.07;;
56720;SDS011;53183;47.412;18.884;2022-12-08T04:30:50;18.62;;;9.75;;
56720;SDS011;53183;47.412;18.884;2022-12-08T04:33:17;22.83;;;11.98;;
56720;SDS011;53183;47.412;18.884;2022-12-08T04:35:44;21.77;;;9.63;;
56720;SDS011;53183;47.412;18.884;2022-12-08T04:38:12;24.33;;;10.82;;
56720;SDS011;53183;47.412;18.884;2022-12-08T04:40:39;22.05;;;10.02;;
56720;SDS011;53183;47.412;18.884;2022-12-08T04:43:06;20.02;;;9.75;;
56720;SDS011;53183;47.412;18.884;2022-12-08T04:45:34;20.37;;;10.15;;
56720;SDS011;53183;47.412;18.884;2022-12-08T04:48:03;20.37;;;10.20;;
56720;SDS011;53183;47.412;18.884;2022-12-08T04:50:30;19.10;;;10.63;;
56720;SDS011;53183;47.412;18.884;2022-12-08T04:52:57;16.92;;;9.60;;
56720;SDS011;53183;47.412;18.884;2022-12-08T04:55:24;22.50;;;9.75;;
56720;SDS011;53183;47.412;18.884;2022-12-08T04:57:51;18.17;;;10.02;;
56720;SDS011;53183;47.412;18.884;2022-12-08T05:00:18;22.30;;;10.23;;
56720;SDS011;53183;47.412;18.884;2022-12-08T05:02:46;23.48;;;11.12;;
56720;SDS011;53183;47.412;18.884;2022-12-08T05:05:13;21.08;;;10.57;;
56720;SDS011;53183;47.412;18.884;2022-12-08T05:07:40;19.65;;;9.40;;
56720;SDS011;53183;47.412;18.884;2022-12-08T05:10:08;20.52;;;10.73;;
56720;SDS011;53183;47.412;18.884;2022-12-08T05:12:35;19.67;;;11.27;;
56720;SDS011;53183;47.412;18.884;2022-12-08T05:15:02;22.27;;;10.55;;
56720;SDS011;53183;47.412;18.884;2022-12-08T05:17:30;22.55;;;10.85;;
56720;SDS011;53183;47.412;18.884;2022-12-08T05:19:57;22.73;;;10.85;;
56720;SDS011;53183;47.412;18.884;2022-12-08T05:22:24;21.95;;;12.00;;
56720;SDS011;53183;47.412;18.884;2022-12-08T05:24:51;24.63;;;10.82;;
56720;SDS011;53183;47.412;18.884;2022-12-08T05:27:18;27.45;;;12.90;;
56720;SDS011;53183;47.412;18.884;2022-12-08T05:29:45;23.25;;;12.07;;
56720;SDS011;53183;47.412;18.884;2022-12-08T05:32:14;26.05;;;12.95;;
56720;SDS011;53183;47.412;18.884;2022-12-08T05:34:41;29.37;;;13.77;;
56720;SDS011;53183;47.412;18.884;2022-12-08T05:37:08;29.58;;;14.57;;
56720;SDS011;53183;47.412;18.884;2022-12-08T05:39:35;27.65;;;14.05;;
56720;SDS011;53183;47.412;18.884;2022-12-08T05:42:02;28.52;;;14.45;;
56720;SDS011;53183;47.412;18.884;2022-12-08T05:44:30;28.50;;;15.15;;
56720;SDS011;53183;47.412;18.884;2022-12-08T05:46:57;28.30;;;15.18;;
56720;SDS011;53183;47.412;18.884;2022-12-08T05:49:24;34.22;;;15.50;;
56720;SDS011;53183;47.412;18.884;2022-12-08T05:51:51;28.05;;;14.63;;
56720;SDS011;53183;47.412;18.884;2022-12-08T05:54:19;29.17;;;15.20;;
56720;SDS011;53183;47.412;18.884;2022-12-08T05:56:46;31.75;;;15.98;;
56720;SDS011;53183;47.412;18.884;2022-12-08T05:59:13;33.63;;;15.90;;
56720;SDS011;53183;47.412;18.884;2022-12-08T06:01:40;28.90;;;14.65;;
56720;SDS011;53183;47.412;18.884;2022-12-08T06:04:08;27.85;;;13.90;;
56720;SDS011;53183;47.412;18.884;2022-12-08T06:06:35;37.22;;;16.35;;
56720;SDS011;53183;47.412;18.884;2022-12-08T06:09:04;31.52;;;14.38;;
56720;SDS011;53183;47.412;18.884;2022-12-08T06:11:32;31.67;;;15.57;;
56720;SDS011;53183;47.412;18.884;2022-12-08T06:13:59;31.17;;;15.63;;
56720;SDS011;53183;47.412;18.884;2022-12-08T06:16:27;33.53;;;15.60;;
56720;SDS011;53183;47.412;18.884;2022-12-08T06:18:55;29.85;;;14.20;;
56720;SDS011;53183;47.412;18.884;2022-12-08T06:21:22;25.90;;;14.75;;
56720;SDS011;53183;47.412;18.884;2022-12-08T06:23:51;33.63;;;14.07;;
56720;SDS011;53183;47.412;18.884;2022-12-08T06:26:20;37.03;;;15.48;;
56720;SDS011;53183;47.412;18.884;2022-12-08T06:28:48;31.45;;;14.82;;
56720;SDS011;53183;47.412;18.884;2022-12-08T06:31:16;24.58;;;14.18;;
56720;SDS011;53183;47.412;18.884;2022-12-08T06:33:45;29.12;;;15.52;;
56720;SDS011;53183;47.412;18.884;2022-12-08T06:36:13;28.67;;;15.15;;
56720;SDS011;53183;47.412;18.884;2022-12-08T06:38:42;29.75;;;14.93;;
56720;SDS011;53183;47.412;18.884;2022-12-08T06:41:10;28.08;;;14.85;;
56720;SDS011;53183;47.412;18.884;2022-12-08T06:43:38;29.80;;;14.30;;
56720;SDS011;53183;47.412;18.884;2022-12-08T06:46:07;30.23;;;14.82;;
56720;SDS011;53183;47.412;18.884;2022-12-08T06:48:36;27.75;;;14.63;;
56720;SDS011;53183;47.412;18.884;2022-12-08T06:51:04;29.65;;;14.93;;
56720;SDS011;53183;47.412;18.884;2022-12-08T06:53:39;29.90;;;15.38;;
56720;SDS011;53183;47.412;18.884;2022-12-08T06:56:07;29.73;;;14.55;;
56720;SDS011;53183;47.412;18.884;2022-12-08T06:58:35;30.35;;;14.45;;
56720;SDS011;53183;47.412;18.884;2022-12-08T07:01:03;30.08;;;15.80;;
56720;SDS011;53183;47.412;18.884;2022-12-08T07:03:32;27.75;;;13.50;;
56720;SDS011;53183;47.412;18.884;2022-12-08T07:05:59;44.03;;;16.60;;
56720;SDS011;53183;47.412;18.884;2022-12-08T07:08:31;27.20;;;15.07;;
56720;SDS011;53183;47.412;18.884;2022-12-08T07:11:04;35.08;;;17.15;;
56720;SDS011;53183;47.412;18.884;2022-12-08T07:13:34;31.83;;;16.52;;
56720;SDS011;53183;47.412;18.884;2022-12-08T07:16:05;31.73;;;16.05;;
56720;SDS011;53183;47.412;18.884;2022-12-08T07:18:34;30.35;;;15.77;;
56720;SDS011;53183;47.412;18.884;2022-12-08T07:21:03;29.85;;;14.55;;
56720;SDS011;53183;47.412;18.884;2022-12-08T07:23:32;33.03;;;15.45;;
56720;SDS011;53183;47.412;18.884;2022-12-08T07:26:00;27.80;;;13.73;;
56720;SDS011;53183;47.412;18.884;2022-12-08T07:28:32;26.52;;;13.88;;
56720;SDS011;53183;47.412;18.884;2022-12-08T07:31:00;30.25;;;15.00;;
56720;SDS011;53183;47.412;18.884;2022-12-08T07:33:28;33.75;;;14.13;;
56720;SDS011;53183;47.412;18.884;2022-12-08T07:35:55;31.73;;;14.02;;
56720;SDS011;53183;47.412;18.884;2022-12-08T07:38:24;30.75;;;14.40;;
56720;SDS011;53183;47.412;18.884;2022-12-08T07:40:52;28.87;;;14.40;;
56720;SDS011;53183;47.412;18.884;2022-12-08T07:43:20;33.10;;;14.07;;
56720;SDS011;53183;47.412;18.884;2022-12-08T07:45:48;26.75;;;14.40;;
56720;SDS011;53183;47.412;18.884;2022-12-08T07:48:16;26.70;;;13.85;;
56720;SDS011;53183;47.412;18.884;2022-12-08T07:50:43;36.90;;;14.50;;
56720;SDS011;53183;47.412;18.884;2022-12-08T07:53:11;31.73;;;13.48;;
56720;SDS011;53183;47.412;18.884;2022-12-08T07:55:40;29.50;;;14.07;;
56720;SDS011;53183;47.412;18.884;2022-12-08T07:58:09;24.58;;;12.70;;
56720;SDS011;53183;47.412;18.884;2022-12-08T08:00:37;32.13;;;17.10;;
56720;SDS011;53183;47.412;18.884;2022-12-08T08:03:04;30.55;;;15.05;;
56720;SDS011;53183;47.412;18.884;2022-12-08T08:05:32;28.30;;;14.95;;
56720;SDS011;53183;47.412;18.884;2022-12-08T08:07:59;30.12;;;15.13;;
56720;SDS011;53183;47.412;18.884;2022-12-08T08:10:26;39.15;;;15.48;;
56720;SDS011;53183;47.412;18.884;2022-12-08T08:12:53;33.13;;;15.15;;
56720;SDS011;53183;47.412;18.884;2022-12-08T08:15:23;27.17;;;15.02;;
56720;SDS011;53183;47.412;18.884;2022-12-08T08:17:51;30.15;;;16.08;;
56720;SDS011;53183;47.412;18.884;2022-12-08T08:20:19;31.10;;;16.00;;
56720;SDS011;53183;47.412;18.884;2022-12-08T08:22:48;31.42;;;16.25;;
56720;SDS011;53183;47.412;18.884;2022-12-08T08:25:16;30.15;;;15.90;;
56720;SDS011;53183;47.412;18.884;2022-12-08T08:27:45;33.17;;;16.77;;
56720;SDS011;53183;47.412;18.884;2022-12-08T08:30:12;32.28;;;15.35;;
56720;SDS011;53183;47.412;18.884;2022-12-08T08:32:46;29.52;;;15.90;;
56720;SDS011;53183;47.412;18.884;2022-12-08T08:35:14;32.25;;;15.02;;
56720;SDS011;53183;47.412;18.884;2022-12-08T08:37:42;27.95;;;13.52;;
56720;SDS011;53183;47.412;18.884;2022-12-08T08:40:15;31.67;;;15.60;;
56720;SDS011;53183;47.412;18.884;2022-12-08T08:42:43;29.23;;;14.57;;
56720;SDS011;53183;47.412;18.884;2022-12-08T08:45:11;35.78;;;15.15;;
56720;SDS011;53183;47.412;18.884;2022-12-08T08:47:38;32.45;;;14.90;;
56720;SDS011;53183;47.412;18.884;2022-12-08T08:50:05;27.67;;;14.57;;
56720;SDS011;53183;47.412;18.884;2022-12-08T08:52:33;26.73;;;13.62;;
56720;SDS011;53183;47.412;18.884;2022-12-08T08:55:01;29.77;;;13.95;;
56720;SDS011;53183;47.412;18.884;2022-12-08T08:57:28;25.40;;;14.57;;
56720;SDS011;53183;47.412;18.884;2022-12-08T08:59:55;25.10;;;12.25;;
56720;SDS011;53183;47.412;18.884;2022-12-08T09:02:22;24.83;;;12.70;;
56720;SDS011;53183;47.412;18.884;2022-12-08T09:04:49;28.42;;;13.35;;
56720;SDS011;53183;47.412;18.884;2022-12-08T09:07:16;24.67;;;12.52;;
56720;SDS011;53183;47.412;18.884;2022-12-08T09:09:44;19.98;;;12.15;;
56720;SDS011;53183;47.412;18.884;2022-12-08T09:12:11;22.35;;;11.65;;
56720;SDS011;53183;47.412;18.884;2022-12-08T09:14:39;22.33;;;10.90;;
56720;SDS011;53183;47.412;18.884;2022-12-08T09:17:06;29.60;;;11.25;;
56720;SDS011;53183;47.412;18.884;2022-12-08T09:19:34;19.90;;;10.80;;
56720;SDS011;53183;47.412;18.884;2022-12-08T09:22:01;23.23;;;12.93;;
56720;SDS011;53183;47.412;18.884;2022-12-08T09:24:29;28.58;;;14.18;;
56720;SDS011;53183;47.412;18.884;2022-12-08T09:26:56;27.35;;;12.82;;
56720;SDS011;53183;47.412;18.884;2022-12-08T09:29:23;24.08;;;12.93;;
56720;SDS011;53183;47.412;18.884;2022-12-08T09:31:54;33.30;;;12.00;;
56720;SDS011;53183;47.412;18.884;2022-12-08T09:34:22;28.20;;;14.15;;
56720;SDS011;53183;47.412;18.884;2022-12-08T09:36:50;26.70;;;12.65;;
56720;SDS011;53183;47.412;18.884;2022-12-08T09:39:17;24.92;;;11.75;;
56720;SDS011;53183;47.412;18.884;2022-12-08T09:41:44;22.75;;;11.93;;
56720;SDS011;53183;47.412;18.884;2022-12-08T09:47:07;24.33;;;11.27;;
56720;SDS011;53183;47.412;18.884;2022-12-08T09:49:46;22.48;;;11.68;;
56720;SDS011;53183;47.412;18.884;2022-12-08T09:52:26;23.90;;;12.07;;
56720;SDS011;53183;47.412;18.884;2022-12-08T09:55:11;23.70;;;11.10;;
56720;SDS011;53183;47.412;18.884;2022-12-08T09:57:46;19.35;;;10.50;;
56720;SDS011;53183;47.412;18.884;2022-12-08T10:00:23;22.98;;;11.35;;
56720;SDS011;53183;47.412;18.884;2022-12-08T10:02:50;26.37;;;11.18;;
56720;SDS011;53183;47.412;18.884;2022-12-08T10:05:18;27.40;;;11.85;;
56720;SDS011;53183;47.412;18.884;2022-12-08T10:07:47;26.27;;;12.98;;
56720;SDS011;53183;47.412;18.884;2022-12-08T10:10:30;24.35;;;13.13;;
56720;SDS011;53183;47.412;18.884;2022-12-08T10:13:15;22.52;;;12.55;;
56720;SDS011;53183;47.412;18.884;2022-12-08T10:19:41;25.55;;;13.85;;
56720;SDS011;53183;47.412;18.884;2022-12-08T10:21:45;34.47;;;13.70;;
56720;SDS011;53183;47.412;18.884;2022-12-08T10:24:25;27.27;;;14.00;;
56720;SDS011;53183;47.412;18.884;2022-12-08T10:27:00;24.85;;;12.95;;
56720;SDS011;53183;47.412;18.884;2022-12-08T10:29:28;26.60;;;13.27;;
56720;SDS011;53183;47.412;18.884;2022-12-08T10:31:56;28.95;;;12.30;;
56720;SDS011;53183;47.412;18.884;2022-12-08T10:34:25;27.58;;;12.75;;
56720;SDS011;53183;47.412;18.884;2022-12-08T10:36:53;25.92;;;12.25;;
56720;SDS011;53183;47.412;18.884;2022-12-08T10:39:39;24.73;;;12.93;;
56720;SDS011;53183;47.412;18.884;2022-12-08T10:44:51;28.05;;;12.80;;
56720;SDS011;53183;47.412;18.884;2022-12-08T10:47:28;23.35;;;12.43;;
56720;SDS011;53183;47.412;18.884;2022-12-08T10:50:08;22.50;;;12.98;;
56720;SDS011;53183;47.412;18.884;2022-12-08T10:52:38;21.92;;;12.10;;
56720;SDS011;53183;47.412;18.884;2022-12-08T10:55:16;25.90;;;14.05;;
56720;SDS011;53183;47.412;18.884;2022-12-08T10:57:45;26.60;;;12.32;;
56720;SDS011;53183;47.412;18.884;2022-12-08T11:00:16;21.15;;;11.65;;
56720;SDS011;53183;47.412;18.884;2022-12-08T11:05:19;28.98;;;14.38;;
56720;SDS011;53183;47.412;18.884;2022-12-08T11:07:51;23.65;;;11.77;;
56720;SDS011;53183;47.412;18.884;2022-12-08T11:10:26;22.98;;;13.13;;
56720;SDS011;53183;47.412;18.884;2022-12-08T11:13:01;25.40;;;12.00;;
56720;SDS011;53183;47.412;18.884;2022-12-08T11:15:36;23.65;;;13.50;;
56720;SDS011;53183;47.412;18.884;2022-12-08T11:18:06;23.83;;;13.18;;
56720;SDS011;53183;47.412;18.884;2022-12-08T11:20:37;23.30;;;12.25;;
56720;SDS011;53183;47.412;18.884;2022-12-08T11:23:23;21.67;;;12.37;;
56720;SDS011;53183;47.412;18.884;2022-12-08T11:25:52;29.52;;;12.93;;
56720;SDS011;53183;47.412;18.884;2022-12-08T11:28:24;21.87;;;11.98;;
56720;SDS011;53183;47.412;18.884;2022-12-08T11:30:53;25.88;;;11.65;;
56720;SDS011;53183;47.412;18.884;2022-12-08T11:33:26;23.17;;;12.05;;
56720;SDS011;53183;47.412;18.884;2022-12-08T11:35:56;25.62;;;11.20;;
56720;SDS011;53183;47.412;18.884;2022-12-08T11:38:28;24.87;;;11.50;;
56720;SDS011;53183;47.412;18.884;2022-12-08T11:41:04;22.20;;;10.63;;
56720;SDS011;53183;47.412;18.884;2022-12-08T11:46:53;20.12;;;10.07;;
56720;SDS011;53183;47.412;18.884;2022-12-08T11:49:24;18.30;;;9.57;;
56720;SDS011;53183;47.412;18.884;2022-12-08T11:52:10;22.25;;;11.25;;
56720;SDS011;53183;47.412;18.884;2022-12-08T11:54:40;20.52;;;10.43;;
56720;SDS011;53183;47.412;18.884;2022-12-08T11:57:13;21.95;;;10.55;;
56720;SDS011;53183;47.412;18.884;2022-12-08T11:59:50;20.92;;;9.15;;
56720;SDS011;53183;47.412;18.884;2022-12-08T12:02:22;18.23;;;9.48;;
56720;SDS011;53183;47.412;18.884;2022-12-08T12:04:54;19.62;;;9.52;;
56720;SDS011;53183;47.412;18.884;2022-12-08T12:21:37;22.73;;;11.07;;
56720;SDS011;53183;47.412;18.884;2022-12-08T12:29:49;21.23;;;11.50;;
56720;SDS011;53183;47.412;18.884;2022-12-08T12:32:22;20.77;;;10.43;;
56720;SDS011;53183;47.412;18.884;2022-12-08T12:34:52;20.15;;;10.45;;
56720;SDS011;53183;47.412;18.884;2022-12-08T12:37:38;24.12;;;10.73;;
56720;SDS011;53183;47.412;18.884;2022-12-08T12:40:15;24.00;;;11.30;;
56720;SDS011;53183;47.412;18.884;2022-12-08T12:42:47;23.67;;;10.95;;
56720;SDS011;53183;47.412;18.884;2022-12-08T12:45:36;19.75;;;11.12;;
56720;SDS011;53183;47.412;18.884;2022-12-08T12:48:16;24.33;;;11.50;;
56720;SDS011;53183;47.412;18.884;2022-12-08T12:50:48;26.10;;;11.38;;
56720;SDS011;53183;47.412;18.884;2022-12-08T12:58:18;17.33;;;10.10;;
56720;SDS011;53183;47.412;18.884;2022-12-08T13:06:07;24.85;;;10.20;;
56720;SDS011;53183;47.412;18.884;2022-12-08T13:08:48;17.98;;;10.02;;
56720;SDS011;53183;47.412;18.884;2022-12-08T13:11:17;20.98;;;10.55;;
56720;SDS011;53183;47.412;18.884;2022-12-08T13:13:54;25.40;;;9.75;;
56720;SDS011;53183;47.412;18.884;2022-12-08T13:16:24;20.52;;;9.80;;
56720;SDS011;53183;47.412;18.884;2022-12-08T13:18:58;18.00;;;9.83;;
56720;SDS011;53183;47.412;18.884;2022-12-08T13:21:31;19.40;;;9.70;;
56720;SDS011;53183;47.412;18.884;2022-12-08T13:26:46;17.90;;;10.15;;
56720;SDS011;53183;47.412;18.884;2022-12-08T13:34:37;22.33;;;9.70;;
56720;SDS011;53183;47.412;18.884;2022-12-08T13:44:40;22.45;;;9.60;;
56720;SDS011;53183;47.412;18.884;2022-12-08T13:51:17;23.70;;;12.50;;
56720;SDS011;53183;47.412;18.884;2022-12-08T13:54:11;26.58;;;12.68;;
56720;SDS011;53183;47.412;18.884;2022-12-08T13:57:19;23.52;;;11.18;;
56720;SDS011;53183;47.412;18.884;2022-12-08T13:59:52;23.33;;;11.25;;
56720;SDS011;53183;47.412;18.884;2022-12-08T14:02:25;24.75;;;12.25;;
56720;SDS011;53183;47.412;18.884;2022-12-08T14:04:56;22.27;;;11.50;;
56720;SDS011;53183;47.412;18.884;2022-12-08T14:07:43;28.65;;;11.05;;
56720;SDS011;53183;47.412;18.884;2022-12-08T14:10:19;22.02;;;11.32;;
56720;SDS011;53183;47.412;18.884;2022-12-08T14:12:59;22.92;;;11.20;;
56720;SDS011;53183;47.412;18.884;2022-12-08T14:15:31;25.33;;;11.80;;
56720;SDS011;53183;47.412;18.884;2022-12-08T14:18:04;29.80;;;13.45;;
56720;SDS011;53183;47.412;18.884;2022-12-08T14:20:33;25.00;;;12.70;;
56720;SDS011;53183;47.412;18.884;2022-12-08T14:23:21;26.23;;;12.45;;
56720;SDS011;53183;47.412;18.884;2022-12-08T14:25:48;22.98;;;12.40;;
56720;SDS011;53183;47.412;18.884;2022-12-08T14:28:15;22.98;;;10.82;;
56720;SDS011;53183;47.412;18.884;2022-12-08T14:30:42;20.52;;;11.45;;
56720;SDS011;53183;47.412;18.884;2022-12-08T14:33:12;20.88;;;10.88;;
56720;SDS011;53183;47.412;18.884;2022-12-08T14:35:40;24.80;;;13.18;;
56720;SDS011;53183;47.412;18.884;2022-12-08T14:38:12;22.30;;;12.13;;
56720;SDS011;53183;47.412;18.884;2022-12-08T14:40:41;20.98;;;10.35;;
56720;SDS011;53183;47.412;18.884;2022-12-08T14:43:12;18.40;;;9.57;;
56720;SDS011;53183;47.412;18.884;2022-12-08T14:51:00;22.25;;;12.43;;
56720;SDS011;53183;47.412;18.884;2022-12-08T14:58:41;22.02;;;11.15;;
56720;SDS011;53183;47.412;18.884;2022-12-08T15:01:11;19.23;;;10.43;;
56720;SDS011;53183;47.412;18.884;2022-12-08T15:03:42;20.95;;;10.55;;
56720;SDS011;53183;47.412;18.884;2022-12-08T15:06:18;26.02;;;11.60;;
56720;SDS011;53183;47.412;18.884;2022-12-08T15:08:54;26.90;;;11.65;;
56720;SDS011;53183;47.412;18.884;2022-12-08T15:11:29;23.12;;;11.48;;
56720;SDS011;53183;47.412;18.884;2022-12-08T15:19:17;24.08;;;11.00;;
56720;SDS011;53183;47.412;18.884;2022-12-08T15:21:54;22.08;;;10.88;;
56720;SDS011;53183;47.412;18.884;2022-12-08T15:24:25;24.83;;;11.77;;
56720;SDS011;53183;47.412;18.884;2022-12-08T15:26:55;22.05;;;10.65;;
56720;SDS011;53183;47.412;18.884;2022-12-08T15:29:23;21.58;;;10.52;;
56720;SDS011;53183;47.412;18.884;2022-12-08T15:31:56;20.55;;;10.43;;
56720;SDS011;53183;47.412;18.884;2022-12-08T15:34:25;23.62;;;11.15;;
56720;SDS011;53183;47.412;18.884;2022-12-08T15:36:53;21.33;;;10.57;;
56720;SDS011;53183;47.412;18.884;2022-12-08T15:42:14;20.73;;;10.90;;
56720;SDS011;53183;47.412;18.884;2022-12-08T15:44:41;20.45;;;12.43;;
56720;SDS011;53183;47.412;18.884;2022-12-08T15:47:18;21.02;;;10.75;;
56720;SDS011;53183;47.412;18.884;2022-12-08T15:49:47;20.85;;;10.73;;
56720;SDS011;53183;47.412;18.884;2022-12-08T15:52:17;23.30;;;11.20;;
56720;SDS011;53183;47.412;18.884;2022-12-08T15:54:46;25.00;;;11.98;;
56720;SDS011;53183;47.412;18.884;2022-12-08T15:57:21;23.85;;;10.95;;
56720;SDS011;53183;47.412;18.884;2022-12-08T16:00:23;23.50;;;11.30;;
56720;SDS011;53183;47.412;18.884;2022-12-08T16:03:20;23.25;;;11.55;;
56720;SDS011;53183;47.412;18.884;2022-12-08T16:06:11;27.27;;;12.48;;
56720;SDS011;53183;47.412;18.884;2022-12-08T16:09:04;26.70;;;11.88;;
56720;SDS011;53183;47.412;18.884;2022-12-08T16:11:39;29.73;;;11.18;;
56720;SDS011;53183;47.412;18.884;2022-12-08T16:14:35;22.83;;;11.02;;
56720;SDS011;53183;47.412;18.884;2022-12-08T16:17:23;25.65;;;12.57;;
56720;SDS011;53183;47.412;18.884;2022-12-08T16:19:51;19.25;;;10.02;;
56720;SDS011;53183;47.412;18.884;2022-12-08T16:22:19;18.92;;;9.88;;
56720;SDS011;53183;47.412;18.884;2022-12-08T16:25:08;18.55;;;9.30;;
56720;SDS011;53183;47.412;18.884;2022-12-08T16:27:46;17.77;;;8.77;;
56720;SDS011;53183;47.412;18.884;2022-12-08T16:30:36;16.55;;;8.77;;
56720;SDS011;53183;47.412;18.884;2022-12-08T16:33:03;20.58;;;10.60;;
56720;SDS011;53183;47.412;18.884;2022-12-08T16:35:30;18.77;;;8.88;;
56720;SDS011;53183;47.412;18.884;2022-12-08T16:37:58;16.05;;;8.88;;